Horton, Michigan
Current Conditions -  °F | °C
As of 12:56 PM on Monday 24 Nov 2014 (Local Time) from KJXN Reporting Station
Light Rain Light Rain  
Wind Chill: 37°   Ceiling: 1200
Heat Index: 45°   Visibility: 3mi
Dew Point: 41°   Wind: 18mph
Humidity: 87%   Direction: 230°SW
Pressure: 29.18"   Gusts: 49mph
Location:  42.15°N, 84.52°W
Report Text: KJXN 241756Z 23016G43KT 3SM -RA BR BKN012 BKN017 OVC023 07/05 A2918 RMK PKWND 22046/1740 PRESRR
Loading
Personal Weather Stations






























Interactive Weather Map New forecast layout! Learn more

10-Day Weather Forecast

Advertisements
Track Severe Weather on mobile